createdAt,value
2017-09-27T00:00:49.619Z,14.48
2017-09-27T00:01:49.616Z,14.46
2017-09-27T00:02:49.613Z,14.49
2017-09-27T00:03:49.610Z,14.46
2017-09-27T00:04:49.608Z,14.46
2017-09-27T00:05:49.609Z,14.53
2017-09-27T00:06:49.606Z,14.52
2017-09-27T00:07:49.604Z,14.46
2017-09-27T00:08:49.602Z,14.53
2017-09-27T00:09:49.595Z,14.42
2017-09-27T00:10:49.592Z,14.53
2017-09-27T00:11:49.590Z,14.44
2017-09-27T00:12:49.586Z,14.44
2017-09-27T00:13:49.588Z,14.45
2017-09-27T00:14:49.586Z,14.41
2017-09-27T00:15:49.583Z,14.46
2017-09-27T00:16:49.581Z,14.36
2017-09-27T00:17:49.577Z,14.34
2017-09-27T00:18:49.573Z,14.36
2017-09-27T00:19:49.571Z,14.24
2017-09-27T00:20:49.569Z,14.31
2017-09-27T00:21:49.562Z,14.26
2017-09-27T00:22:49.559Z,14.20
2017-09-27T00:23:49.557Z,14.20
2017-09-27T00:24:49.553Z,14.20
2017-09-27T00:25:49.552Z,14.13
2017-09-27T00:26:49.549Z,14.08
2017-09-27T00:27:49.546Z,14.08
2017-09-27T00:28:49.542Z,14.11
2017-09-27T00:29:49.542Z,13.98
2017-09-27T00:30:49.545Z,13.96
2017-09-27T00:31:49.538Z,13.94
2017-09-27T00:32:49.534Z,13.98
2017-09-27T00:33:49.531Z,13.93
2017-09-27T00:34:49.529Z,13.94
2017-09-27T00:35:49.525Z,13.90
2017-09-27T00:36:49.522Z,13.86
2017-09-27T00:37:49.515Z,13.88
2017-09-27T00:38:49.513Z,13.84
2017-09-27T00:39:49.509Z,13.84
2017-09-27T00:40:49.506Z,13.76
2017-09-27T00:41:49.502Z,13.91
2017-09-27T00:42:49.500Z,13.84
2017-09-27T00:43:49.501Z,13.83
2017-09-27T00:44:49.523Z,13.81
2017-09-27T00:45:49.495Z,13.83
2017-09-27T00:46:49.492Z,13.71
2017-09-27T00:47:49.488Z,13.73
2017-09-27T00:48:49.486Z,13.72
2017-09-27T00:49:49.484Z,13.65
2017-09-27T00:50:49.478Z,13.71
2017-09-27T00:51:49.476Z,13.72
2017-09-27T00:52:49.471Z,13.75
2017-09-27T00:53:49.466Z,13.68
2017-09-27T00:54:49.462Z,13.72
2017-09-27T00:55:49.458Z,13.71
2017-09-27T00:56:49.455Z,13.66
2017-09-27T00:57:49.451Z,13.61
2017-09-27T00:58:49.448Z,13.65
2017-09-27T00:59:49.445Z,13.62
2017-09-27T01:00:49.442Z,13.68
2017-09-27T01:01:49.442Z,13.62
2017-09-27T01:02:49.439Z,13.61
2017-09-27T01:03:49.436Z,13.59
2017-09-27T01:04:49.431Z,13.59
2017-09-27T01:05:49.427Z,13.47
2017-09-27T01:06:49.426Z,13.57
2017-09-27T01:07:49.422Z,13.62
2017-09-27T01:08:49.418Z,13.54
2017-09-27T01:09:49.411Z,13.48
2017-09-27T01:10:49.408Z,13.53
2017-09-27T01:11:49.406Z,13.44
2017-09-27T01:12:49.400Z,13.46
2017-09-27T01:13:49.401Z,13.46
2017-09-27T01:14:49.398Z,13.35
2017-09-27T01:15:49.394Z,13.35
2017-09-27T01:16:49.389Z,13.39
2017-09-27T01:17:49.384Z,13.32
2017-09-27T01:18:49.381Z,13.29
2017-09-27T01:19:49.376Z,13.28
2017-09-27T01:20:49.376Z,13.24
2017-09-27T01:21:49.368Z,13.14
2017-09-27T01:22:49.365Z,13.09
2017-09-27T01:23:49.361Z,13.09
2017-09-27T01:24:49.358Z,12.99
2017-09-27T01:25:49.358Z,12.91
2017-09-27T01:26:49.356Z,12.76
2017-09-27T01:27:49.352Z,12.76
2017-09-27T01:28:49.348Z,12.70
2017-09-27T01:29:49.346Z,12.69
2017-09-27T01:30:49.340Z,12.58
2017-09-27T01:31:49.339Z,12.56
2017-09-27T01:32:49.335Z,12.54
2017-09-27T01:33:49.326Z,12.54
2017-09-27T01:34:49.324Z,12.43
2017-09-27T01:35:49.319Z,12.46
2017-09-27T01:36:49.316Z,12.40
2017-09-27T01:37:49.312Z,12.37
2017-09-27T01:38:49.309Z,12.26
2017-09-27T01:39:49.309Z,12.26
2017-09-27T01:40:49.300Z,12.21
2017-09-27T01:41:49.301Z,12.19
2017-09-27T01:42:49.299Z,12.21
2017-09-27T01:43:49.295Z,12.19
2017-09-27T01:44:49.294Z,12.26
2017-09-27T01:45:49.288Z,12.25
2017-09-27T01:46:49.283Z,12.15
2017-09-27T01:47:49.282Z,12.16
2017-09-27T01:48:49.280Z,12.08
2017-09-27T01:49:49.268Z,12.03
2017-09-27T01:50:49.265Z,12.03
2017-09-27T01:51:49.262Z,12.08
2017-09-27T01:52:49.257Z,12.07
2017-09-27T01:53:49.256Z,11.97
2017-09-27T01:54:49.251Z,11.97
2017-09-27T01:55:49.247Z,12.04
2017-09-27T01:56:49.243Z,11.98
2017-09-27T01:57:49.243Z,12.03
2017-09-27T01:58:49.245Z,11.96
2017-09-27T01:59:49.237Z,12.05
2017-09-27T02:00:49.231Z,12.01
2017-09-27T02:01:49.228Z,11.96
2017-09-27T02:02:49.225Z,12.00
2017-09-27T02:03:49.221Z,12.03
2017-09-27T02:04:49.217Z,12.01
2017-09-27T02:05:49.208Z,12.07
2017-09-27T02:06:49.204Z,12.05
2017-09-27T02:07:49.202Z,11.94
2017-09-27T02:08:49.196Z,11.90
2017-09-27T02:09:49.193Z,11.94
2017-09-27T02:10:49.191Z,11.88
2017-09-27T02:11:49.186Z,11.77
2017-09-27T02:12:49.183Z,11.77
2017-09-27T02:13:49.183Z,11.67
2017-09-27T02:14:49.178Z,11.74
2017-09-27T02:15:49.174Z,11.66
2017-09-27T02:16:49.168Z,11.63
2017-09-27T02:17:49.164Z,11.75
2017-09-27T02:18:49.158Z,11.67
2017-09-27T02:19:49.155Z,11.78
2017-09-27T02:20:49.150Z,11.70
2017-09-27T02:21:49.151Z,11.74
2017-09-27T02:22:49.147Z,11.75
2017-09-27T02:23:49.142Z,11.74
2017-09-27T02:24:49.138Z,11.90
2017-09-27T02:25:49.135Z,11.77
2017-09-27T02:26:49.135Z,11.78
2017-09-27T02:27:49.130Z,11.77
2017-09-27T02:28:49.121Z,11.75
2017-09-27T02:29:49.115Z,11.74
2017-09-27T02:30:49.111Z,11.82
2017-09-27T02:31:49.106Z,11.82
2017-09-27T02:32:49.102Z,11.82
2017-09-27T02:33:49.098Z,11.87
2017-09-27T02:34:49.100Z,11.84
2017-09-27T02:35:49.090Z,11.74
2017-09-27T02:36:49.086Z,11.72
2017-09-27T02:37:49.086Z,11.72
2017-09-27T02:38:49.082Z,11.77
2017-09-27T02:39:49.079Z,11.70
2017-09-27T02:40:49.074Z,11.72
2017-09-27T02:41:49.070Z,11.78
2017-09-27T02:42:49.066Z,11.72
2017-09-27T02:43:49.063Z,11.67
2017-09-27T02:44:49.059Z,11.74
2017-09-27T02:45:49.049Z,11.67
2017-09-27T02:46:49.046Z,11.85
2017-09-27T02:47:49.042Z,11.90
2017-09-27T02:48:49.036Z,12.07
2017-09-27T02:49:49.032Z,12.11
2017-09-27T02:50:49.028Z,11.97
2017-09-27T02:51:49.025Z,12.15
2017-09-27T02:52:49.020Z,12.13
2017-09-27T02:53:49.020Z,12.18
2017-09-27T02:54:49.016Z,12.23
2017-09-27T02:55:49.017Z,12.36
2017-09-27T02:56:49.008Z,12.36
2017-09-27T02:57:49.005Z,12.30
2017-09-27T02:58:49.000Z,12.22
2017-09-27T02:59:48.996Z,12.23
2017-09-27T03:00:48.990Z,12.25
2017-09-27T03:01:48.981Z,12.23
2017-09-27T03:02:48.981Z,12.26
2017-09-27T03:03:48.975Z,12.25
2017-09-27T03:04:48.969Z,12.25
2017-09-27T03:05:48.967Z,12.23
2017-09-27T03:06:48.962Z,12.23
2017-09-27T03:07:48.958Z,12.18
2017-09-27T03:08:48.952Z,12.15
2017-09-27T03:09:48.952Z,12.11
2017-09-27T03:10:48.949Z,12.16
2017-09-27T03:11:48.944Z,12.11
2017-09-27T03:12:48.941Z,12.15
2017-09-27T03:13:48.936Z,12.00
2017-09-27T03:14:48.933Z,12.08
2017-09-27T03:15:48.929Z,11.97
2017-09-27T03:16:48.924Z,12.08
2017-09-27T03:17:48.914Z,11.97
2017-09-27T03:18:48.912Z,12.05
2017-09-27T03:19:48.907Z,12.00
2017-09-27T03:20:48.903Z,11.98
2017-09-27T03:21:48.903Z,12.01
2017-09-27T03:22:48.901Z,11.98
2017-09-27T03:23:48.896Z,11.98
2017-09-27T03:24:48.891Z,12.01
2017-09-27T03:25:48.881Z,11.96
2017-09-27T03:26:48.879Z,12.04
2017-09-27T03:27:48.876Z,12.08
2017-09-27T03:28:48.870Z,12.07
2017-09-27T03:29:48.866Z,12.11
2017-09-27T03:30:48.864Z,12.04
2017-09-27T03:31:48.859Z,12.00
2017-09-27T03:32:48.853Z,12.05
2017-09-27T03:33:48.854Z,11.94
2017-09-27T03:34:48.850Z,12.05
2017-09-27T03:35:48.848Z,11.96
2017-09-27T03:36:48.841Z,11.88
2017-09-27T03:37:48.838Z,11.90
2017-09-27T03:38:48.833Z,12.01
2017-09-27T03:39:48.830Z,12.01
2017-09-27T03:40:48.824Z,12.01
2017-09-27T03:41:48.821Z,12.08
2017-09-27T03:42:48.813Z,12.01
2017-09-27T03:43:48.808Z,12.01
2017-09-27T03:44:48.803Z,11.90
2017-09-27T03:45:48.799Z,11.98
2017-09-27T03:46:48.796Z,12.01
2017-09-27T03:47:48.791Z,11.94
2017-09-27T03:48:48.787Z,11.98
2017-09-27T03:49:48.786Z,11.96
2017-09-27T03:50:48.782Z,11.96
2017-09-27T03:51:48.780Z,11.98
2017-09-27T03:52:48.774Z,12.01
2017-09-27T03:53:48.770Z,11.97
2017-09-27T03:54:48.768Z,11.93
2017-09-27T03:55:48.761Z,11.90
2017-09-27T03:56:48.758Z,11.90
2017-09-27T03:57:48.750Z,11.93
2017-09-27T03:58:48.752Z,11.87
2017-09-27T03:59:48.741Z,11.94
2017-09-27T04:00:48.736Z,11.93
2017-09-27T04:01:48.731Z,11.88
2017-09-27T04:02:48.728Z,11.93
2017-09-27T04:03:48.724Z,11.96
2017-09-27T04:04:48.722Z,11.85
2017-09-27T04:05:48.720Z,11.93
2017-09-27T04:06:48.716Z,11.88
2017-09-27T04:07:48.711Z,11.93
2017-09-27T04:08:48.704Z,11.94
2017-09-27T04:09:48.701Z,11.88
2017-09-27T04:10:48.698Z,11.88
2017-09-27T04:11:48.694Z,11.93
2017-09-27T04:12:48.689Z,11.87
2017-09-27T04:13:48.680Z,11.97
2017-09-27T04:14:48.677Z,11.96
2017-09-27T04:15:48.672Z,11.93
2017-09-27T04:16:48.667Z,11.85
2017-09-27T04:17:48.663Z,11.81
2017-09-27T04:18:48.662Z,11.77
2017-09-27T04:19:48.655Z,11.81
2017-09-27T04:20:48.650Z,11.82
2017-09-27T04:21:48.649Z,11.78
2017-09-27T04:22:48.649Z,11.79
2017-09-27T04:23:48.641Z,11.74
2017-09-27T04:24:48.637Z,11.77
2017-09-27T04:25:48.632Z,11.72
2017-09-27T04:26:48.627Z,11.74
2017-09-27T04:27:48.624Z,11.82
2017-09-27T04:28:48.617Z,11.74
2017-09-27T04:29:48.610Z,11.70
2017-09-27T04:30:48.606Z,11.69
2017-09-27T04:31:48.602Z,11.66
2017-09-27T04:32:48.597Z,11.66
2017-09-27T04:33:48.591Z,11.72
2017-09-27T04:34:48.586Z,11.59
2017-09-27T04:35:48.583Z,11.66
2017-09-27T04:36:48.579Z,11.57
2017-09-27T04:37:48.577Z,11.64
2017-09-27T04:38:48.572Z,11.64
2017-09-27T04:39:48.569Z,11.54
2017-09-27T04:40:48.567Z,11.59
2017-09-27T04:41:48.560Z,11.74
2017-09-27T04:42:48.555Z,11.70
2017-09-27T04:43:48.551Z,11.69
2017-09-27T04:44:48.546Z,11.78
2017-09-27T04:45:48.538Z,11.74
2017-09-27T04:46:48.534Z,11.72
2017-09-27T04:47:48.528Z,11.69
2017-09-27T04:48:48.523Z,11.67
2017-09-27T04:49:48.519Z,11.74
2017-09-27T04:50:48.520Z,11.75
2017-09-27T04:51:48.510Z,11.67
2017-09-27T04:52:48.506Z,11.62
2017-09-27T04:53:48.506Z,11.66
2017-09-27T04:54:48.500Z,11.66
2017-09-27T04:55:48.497Z,11.66
2017-09-27T04:56:48.492Z,11.54
2017-09-27T04:57:48.487Z,11.63
2017-09-27T04:58:48.483Z,11.62
2017-09-27T04:59:48.479Z,11.64
2017-09-27T05:00:48.475Z,11.64
2017-09-27T05:01:48.466Z,11.63
2017-09-27T05:02:48.461Z,11.54
2017-09-27T05:03:48.458Z,11.62
2017-09-27T05:04:48.452Z,11.56
2017-09-27T05:05:48.447Z,11.53
2017-09-27T05:06:48.444Z,11.46
2017-09-27T05:07:48.438Z,11.48
2017-09-27T05:08:48.433Z,11.54
2017-09-27T05:09:48.434Z,11.45
2017-09-27T05:10:48.430Z,11.48
2017-09-27T05:11:48.425Z,11.48
2017-09-27T05:12:48.420Z,11.48
2017-09-27T05:13:48.414Z,11.38
2017-09-27T05:14:48.410Z,11.36
2017-09-27T05:15:48.405Z,11.36
2017-09-27T05:16:48.400Z,11.41
2017-09-27T05:17:48.392Z,11.33
2017-09-27T05:18:48.389Z,11.33
2017-09-27T05:19:48.384Z,11.28
2017-09-27T05:20:48.379Z,11.28
2017-09-27T05:21:48.375Z,11.24
2017-09-27T05:22:48.371Z,11.30
2017-09-27T05:23:48.366Z,11.19
2017-09-27T05:24:48.361Z,11.12
2017-09-27T05:25:48.361Z,11.16
2017-09-27T05:26:48.357Z,11.16
2017-09-27T05:27:48.351Z,11.16
2017-09-27T05:28:48.346Z,11.20
2017-09-27T05:29:48.340Z,11.16
2017-09-27T05:30:48.334Z,11.05
2017-09-27T05:31:48.333Z,11.16
2017-09-27T05:32:48.326Z,11.11
2017-09-27T05:33:48.325Z,11.03
2017-09-27T05:34:48.321Z,11.01
2017-09-27T05:35:48.317Z,11.03
2017-09-27T05:36:48.312Z,11.06
2017-09-27T05:37:48.307Z,11.05
2017-09-27T05:38:48.302Z,11.08
2017-09-27T05:39:48.298Z,11.06
2017-09-27T05:40:48.291Z,11.05
2017-09-27T05:41:48.284Z,11.11
2017-09-27T05:42:48.281Z,11.12
2017-09-27T05:43:48.275Z,11.13
2017-09-27T05:44:48.271Z,11.13
2017-09-27T05:45:48.266Z,11.16
2017-09-27T05:46:48.264Z,11.12
2017-09-27T05:47:48.258Z,11.11
2017-09-27T05:48:48.252Z,11.09
2017-09-27T05:49:48.252Z,11.06
2017-09-27T05:50:48.247Z,11.13
2017-09-27T05:51:48.244Z,11.11
2017-09-27T05:52:48.238Z,11.13
2017-09-27T05:53:48.237Z,11.16
2017-09-27T05:54:48.231Z,11.30
2017-09-27T05:55:48.228Z,11.27
2017-09-27T05:56:48.222Z,11.57
2017-09-27T05:57:48.214Z,11.69
2017-09-27T05:58:48.209Z,11.75
2017-09-27T05:59:48.206Z,11.88
2017-09-27T06:00:48.201Z,12.00
2017-09-27T06:01:48.196Z,12.04
2017-09-27T06:02:48.191Z,12.11
2017-09-27T06:03:48.189Z,12.11
2017-09-27T06:04:48.184Z,12.25
2017-09-27T06:05:48.184Z,12.26
2017-09-27T06:06:48.180Z,12.25
2017-09-27T06:07:48.177Z,12.30
2017-09-27T06:08:48.171Z,12.38
2017-09-27T06:09:48.168Z,12.48
2017-09-27T06:10:48.166Z,12.49
2017-09-27T06:11:48.159Z,12.56
2017-09-27T06:12:48.157Z,12.49
2017-09-27T06:13:48.149Z,12.56
2017-09-27T06:14:48.147Z,12.55
2017-09-27T06:15:48.143Z,12.62
2017-09-27T06:16:48.138Z,12.63
2017-09-27T06:17:48.134Z,12.67
2017-09-27T06:18:48.130Z,12.77
2017-09-27T06:19:48.127Z,12.81
2017-09-27T06:20:48.123Z,12.81
2017-09-27T06:21:48.124Z,12.74
2017-09-27T06:22:48.121Z,12.81
2017-09-27T06:23:48.118Z,12.79
2017-09-27T06:24:48.113Z,12.80
2017-09-27T06:25:48.116Z,12.79
2017-09-27T06:26:48.108Z,12.87
2017-09-27T06:27:48.105Z,12.95
2017-09-27T06:28:48.100Z,12.96
2017-09-27T06:29:48.094Z,13.01
2017-09-27T06:30:48.093Z,12.99
2017-09-27T06:31:48.087Z,13.01
2017-09-27T06:32:48.084Z,13.04
2017-09-27T06:33:48.083Z,13.16
2017-09-27T06:34:48.081Z,13.10
2017-09-27T06:35:48.078Z,13.16
2017-09-27T06:36:48.074Z,13.12
2017-09-27T06:37:48.069Z,13.14
2017-09-27T06:38:48.065Z,13.19
2017-09-27T06:39:48.061Z,13.31
2017-09-27T06:40:48.057Z,13.31
2017-09-27T06:41:48.101Z,13.27
2017-09-27T06:42:48.051Z,13.36
2017-09-27T06:43:48.049Z,13.32
2017-09-27T06:44:48.045Z,13.43
2017-09-27T06:45:48.047Z,13.38
2017-09-27T06:46:48.044Z,13.41
2017-09-27T06:47:48.042Z,13.38
2017-09-27T06:48:48.037Z,13.38
2017-09-27T06:49:48.034Z,13.31
2017-09-27T06:50:48.032Z,13.32
2017-09-27T06:51:48.029Z,13.39
2017-09-27T06:52:48.025Z,13.44
2017-09-27T06:53:48.016Z,13.31
2017-09-27T06:54:48.015Z,13.39
2017-09-27T06:55:48.011Z,13.47
2017-09-27T06:56:48.009Z,13.38
2017-09-27T06:57:48.006Z,13.38
2017-09-27T06:58:48.002Z,13.38
2017-09-27T06:59:48.001Z,13.44
2017-09-27T07:00:47.997Z,13.39
2017-09-27T07:01:47.998Z,13.44
2017-09-27T07:02:48.001Z,13.48
2017-09-27T07:03:47.993Z,13.43
2017-09-27T07:04:47.990Z,13.51
2017-09-27T07:05:47.987Z,13.53
2017-09-27T07:06:47.983Z,13.61
2017-09-27T07:07:47.981Z,13.63
2017-09-27T07:08:47.978Z,13.72
2017-09-27T07:09:47.971Z,13.73
2017-09-27T07:10:47.967Z,13.84
2017-09-27T07:11:47.967Z,13.81
2017-09-27T07:12:47.964Z,13.93
2017-09-27T07:13:47.960Z,14.06
2017-09-27T07:14:47.957Z,14.05
2017-09-27T07:15:47.953Z,14.19
2017-09-27T07:16:47.951Z,14.42
2017-09-27T07:17:47.959Z,14.67
2017-09-27T07:18:47.952Z,14.90
2017-09-27T07:19:47.948Z,15.34
2017-09-27T07:20:47.944Z,16.41
2017-09-27T07:21:47.943Z,17.27
2017-09-27T07:22:47.941Z,18.17
2017-09-27T07:23:47.939Z,18.93
2017-09-27T07:24:47.937Z,19.61
2017-09-27T07:25:47.933Z,20.16
2017-09-27T07:26:47.931Z,20.63
2017-09-27T07:27:47.931Z,21.21
2017-09-27T07:28:47.929Z,21.55
2017-09-27T07:29:47.930Z,21.99
2017-09-27T07:30:47.930Z,22.38
2017-09-27T07:31:47.931Z,22.86
2017-09-27T07:32:47.931Z,23.25
2017-09-27T07:33:47.936Z,23.74
2017-09-27T07:34:47.937Z,23.74
2017-09-27T07:35:47.940Z,24.04
2017-09-27T07:36:47.941Z,24.24
2017-09-27T07:37:47.940Z,24.66
2017-09-27T07:38:47.942Z,24.90
2017-09-27T07:39:47.947Z,25.12
2017-09-27T07:40:47.948Z,24.68
2017-09-27T07:41:47.957Z,25.27
2017-09-27T07:42:47.965Z,24.18
2017-09-27T07:43:47.963Z,24.33
2017-09-27T07:44:47.968Z,24.42
2017-09-27T07:45:47.974Z,24.14
2017-09-27T07:46:47.978Z,24.41
2017-09-27T07:47:47.984Z,24.68
2017-09-27T07:48:48.028Z,24.48
2017-09-27T07:49:47.987Z,24.94
2017-09-27T07:50:54.260Z,25.29
2017-09-27T07:51:48.000Z,25.69
2017-09-27T07:52:48.005Z,26.24
2017-09-27T07:53:48.012Z,26.36
2017-09-27T07:54:48.017Z,26.71
2017-09-27T07:55:48.023Z,25.83
2017-09-27T07:56:48.028Z,26.54
2017-09-27T07:57:48.039Z,26.31
2017-09-27T07:58:48.047Z,26.71
2017-09-27T07:59:48.054Z,27.28
2017-09-27T08:00:48.060Z,27.50
2017-09-27T08:01:48.078Z,28.20
2017-09-27T08:02:48.074Z,28.35
2017-09-27T08:03:48.083Z,28.52
2017-09-27T08:04:48.088Z,27.98
2017-09-27T08:05:48.092Z,28.32
2017-09-27T08:06:48.121Z,27.91
2017-09-27T08:07:48.107Z,26.38
2017-09-27T08:08:48.114Z,24.98
2017-09-27T08:09:48.122Z,24.75
2017-09-27T08:10:48.130Z,25.39
2017-09-27T08:11:48.143Z,25.89
2017-09-27T08:12:48.146Z,26.46
2017-09-27T08:13:48.157Z,24.34
2017-09-27T08:14:48.168Z,24.52
2017-09-27T08:15:48.175Z,25.49
2017-09-27T08:16:48.184Z,25.36
2017-09-27T08:17:48.192Z,25.05
2017-09-27T08:18:48.200Z,25.04
2017-09-27T08:19:48.207Z,24.11
2017-09-27T08:20:48.220Z,24.59
2017-09-27T08:21:48.220Z,25.56
2017-09-27T08:22:48.229Z,25.30
2017-09-27T08:23:48.237Z,25.31
2017-09-27T08:24:48.246Z,25.67
2017-09-27T08:25:48.254Z,26.47
2017-09-27T08:26:48.263Z,26.13
2017-09-27T08:27:48.273Z,26.84
2017-09-27T08:28:48.282Z,26.38
2017-09-27T08:29:48.295Z,26.78
2017-09-27T08:30:48.311Z,26.21
2017-09-27T08:31:48.314Z,26.66
2017-09-27T08:32:48.322Z,25.42
2017-09-27T08:33:48.338Z,26.51
2017-09-27T08:34:48.341Z,27.53
2017-09-27T08:35:48.353Z,28.06
2017-09-27T08:36:48.360Z,28.72
2017-09-27T08:37:48.367Z,28.72
2017-09-27T08:38:48.376Z,27.78
2017-09-27T08:39:48.387Z,27.96
2017-09-27T08:40:48.397Z,28.05
2017-09-27T08:41:48.411Z,28.64
2017-09-27T08:42:48.422Z,29.05
2017-09-27T08:43:48.433Z,29.21
2017-09-27T08:44:48.441Z,29.37
2017-09-27T08:45:48.456Z,29.82
2017-09-27T08:46:48.459Z,29.44
2017-09-27T08:47:48.471Z,29.17
2017-09-27T08:48:48.482Z,30.07
2017-09-27T08:49:48.491Z,29.84
2017-09-27T08:50:48.503Z,30.64
2017-09-27T08:51:48.516Z,30.15
2017-09-27T08:52:48.526Z,30.76
2017-09-27T08:53:48.541Z,31.07
2017-09-27T08:54:48.553Z,28.72
2017-09-27T08:55:48.566Z,28.83
2017-09-27T08:56:48.576Z,28.70
2017-09-27T08:57:48.588Z,27.15
2017-09-27T08:58:48.599Z,25.94
2017-09-27T08:59:48.612Z,26.42
2017-09-27T09:00:48.623Z,26.94
2017-09-27T09:01:48.632Z,25.93
2017-09-27T09:02:48.644Z,26.44
2017-09-27T09:03:48.655Z,25.98
2017-09-27T09:04:48.665Z,26.96
2017-09-27T09:05:48.678Z,28.36
2017-09-27T09:06:48.691Z,29.23
2017-09-27T09:07:48.703Z,28.77
2017-09-27T09:08:48.713Z,29.23
2017-09-27T09:09:48.730Z,29.91
2017-09-27T09:10:48.744Z,28.88
2017-09-27T09:11:48.755Z,29.52
2017-09-27T09:12:48.768Z,29.67
2017-09-27T09:13:48.794Z,29.27
2017-09-27T09:14:48.793Z,29.48
2017-09-27T09:15:48.806Z,30.29
2017-09-27T09:16:48.818Z,30.01
2017-09-27T09:17:48.824Z,30.61
2017-09-27T09:18:48.837Z,30.78
2017-09-27T09:19:48.849Z,30.56
2017-09-27T09:20:48.867Z,31.01
2017-09-27T09:21:48.875Z,31.65
2017-09-27T09:22:48.888Z,32.28
2017-09-27T09:23:48.909Z,31.34
2017-09-27T09:24:48.912Z,31.94
2017-09-27T09:25:48.933Z,31.62
2017-09-27T09:26:48.989Z,30.49
2017-09-27T09:27:49.130Z,30.91
2017-09-27T09:28:48.967Z,31.01
2017-09-27T09:29:48.981Z,30.32
2017-09-27T09:30:48.993Z,30.37
2017-09-27T09:31:49.007Z,30.15
2017-09-27T09:32:49.020Z,30.97
2017-09-27T09:33:49.028Z,31.18
2017-09-27T09:34:49.041Z,30.96
2017-09-27T09:35:49.054Z,30.28
2017-09-27T09:36:49.067Z,30.75
2017-09-27T09:37:49.081Z,31.47
2017-09-27T09:38:49.094Z,29.02
2017-09-27T09:39:49.111Z,29.71
2017-09-27T09:40:49.120Z,29.03
2017-09-27T09:41:49.138Z,28.67
2017-09-27T09:42:49.150Z,29.39
2017-09-27T09:43:49.165Z,30.13
2017-09-27T09:44:49.177Z,30.73
2017-09-27T09:45:49.186Z,31.01
2017-09-27T09:46:49.200Z,31.69
2017-09-27T09:47:49.213Z,32.21
2017-09-27T09:48:49.227Z,32.31
2017-09-27T09:49:49.245Z,31.07
2017-09-27T09:50:49.259Z,30.48
2017-09-27T09:51:49.273Z,30.36
2017-09-27T09:52:49.284Z,30.25
2017-09-27T09:53:49.298Z,30.25
2017-09-27T09:54:49.313Z,30.78
2017-09-27T09:55:49.326Z,31.78
2017-09-27T09:56:49.340Z,31.54
2017-09-27T09:57:49.349Z,32.40
2017-09-27T09:58:49.363Z,30.76
2017-09-27T09:59:49.376Z,30.19
2017-09-27T10:00:49.387Z,31.32
2017-09-27T10:01:49.403Z,30.98
2017-09-27T10:02:49.415Z,30.30
2017-09-27T10:03:49.439Z,30.70
2017-09-27T10:04:49.443Z,31.52
2017-09-27T10:05:49.460Z,31.72
2017-09-27T10:06:49.475Z,29.30
2017-09-27T10:07:49.488Z,28.82
2017-09-27T10:08:49.502Z,29.57
2017-09-27T10:09:49.515Z,30.53
2017-09-27T10:10:49.529Z,31.76
2017-09-27T10:11:49.545Z,32.07
2017-09-27T10:12:49.557Z,31.69
2017-09-27T10:13:49.567Z,32.83
2017-09-27T10:14:49.582Z,32.95
2017-09-27T10:15:49.600Z,33.62
2017-09-27T10:16:49.609Z,33.15
2017-09-27T10:17:49.622Z,31.99
2017-09-27T10:18:49.637Z,32.61
2017-09-27T10:19:49.652Z,33.56
2017-09-27T10:20:49.666Z,32.19
2017-09-27T10:21:49.682Z,31.71
2017-09-27T10:22:49.697Z,32.10
2017-09-27T10:23:49.714Z,30.23
2017-09-27T10:24:49.726Z,28.87
2017-09-27T10:25:49.745Z,29.35
2017-09-27T10:26:49.755Z,29.71
2017-09-27T10:27:49.770Z,29.21
2017-09-27T10:28:49.783Z,29.52
2017-09-27T10:29:49.795Z,29.64
2017-09-27T10:30:49.810Z,29.81
2017-09-27T10:31:49.823Z,30.34
2017-09-27T10:32:49.837Z,30.60
2017-09-27T10:33:49.852Z,30.03
2017-09-27T10:34:49.865Z,30.36
2017-09-27T10:35:49.879Z,30.94
2017-09-27T10:36:49.892Z,30.32
2017-09-27T10:37:49.911Z,31.65
2017-09-27T10:38:49.926Z,32.27
2017-09-27T10:39:49.941Z,31.41
2017-09-27T10:40:49.954Z,30.37
2017-09-27T10:41:49.967Z,31.65
2017-09-27T10:42:49.981Z,32.27
2017-09-27T10:43:49.995Z,31.69
2017-09-27T10:44:50.010Z,31.62
2017-09-27T10:45:50.019Z,32.49
2017-09-27T10:46:50.034Z,31.32
2017-09-27T10:47:50.047Z,32.10
2017-09-27T10:48:50.060Z,32.91
2017-09-27T10:49:50.080Z,33.28
2017-09-27T10:50:50.094Z,32.85
2017-09-27T10:51:50.106Z,33.24
2017-09-27T10:52:50.120Z,32.95
2017-09-27T10:53:50.131Z,32.62
2017-09-27T10:54:50.145Z,33.02
2017-09-27T10:55:50.159Z,33.24
2017-09-27T10:56:50.171Z,32.49
2017-09-27T10:57:50.186Z,32.49
2017-09-27T10:58:50.201Z,32.35
2017-09-27T10:59:50.218Z,32.05
2017-09-27T11:00:50.281Z,30.82
2017-09-27T11:01:50.373Z,29.89
2017-09-27T11:02:50.267Z,28.92
2017-09-27T11:03:50.274Z,28.28
2017-09-27T11:04:50.285Z,28.77
2017-09-27T11:05:50.334Z,29.21
2017-09-27T11:06:50.313Z,29.88
2017-09-27T11:07:50.324Z,30.04
2017-09-27T11:08:50.336Z,29.89
2017-09-27T11:09:50.347Z,30.37
2017-09-27T11:10:50.371Z,29.86
2017-09-27T11:11:50.372Z,29.47
2017-09-27T11:12:50.382Z,29.63
2017-09-27T11:13:50.397Z,29.86
2017-09-27T11:14:50.411Z,29.20
2017-09-27T11:15:50.421Z,28.46
2017-09-27T11:16:50.432Z,28.17
2017-09-27T11:17:50.449Z,27.84
2017-09-27T11:18:50.552Z,26.91
2017-09-27T11:19:50.640Z,26.44
2017-09-27T11:20:50.574Z,26.38
2017-09-27T11:21:50.687Z,26.03
2017-09-27T11:22:50.610Z,25.90
2017-09-27T11:23:50.564Z,25.66
2017-09-27T11:24:50.572Z,25.57
2017-09-27T11:25:50.530Z,25.61
2017-09-27T11:26:50.539Z,25.56
2017-09-27T11:27:50.550Z,25.82
2017-09-27T11:28:50.560Z,26.12
2017-09-27T11:29:50.565Z,26.44
2017-09-27T11:30:50.575Z,26.51
2017-09-27T11:31:50.583Z,26.13
2017-09-27T11:32:50.591Z,25.71
2017-09-27T11:33:50.604Z,25.82
2017-09-27T11:34:50.610Z,25.86
2017-09-27T11:35:50.621Z,25.59
2017-09-27T11:36:50.626Z,25.59
2017-09-27T11:37:50.634Z,25.41
2017-09-27T11:38:50.639Z,25.27
2017-09-27T11:39:50.649Z,25.44
2017-09-27T11:40:50.822Z,25.78
2017-09-27T11:41:50.660Z,25.98
2017-09-27T11:42:50.710Z,25.54
2017-09-27T11:43:50.677Z,25.49
2017-09-27T11:44:50.678Z,25.29
2017-09-27T11:45:50.684Z,24.61
2017-09-27T11:46:50.690Z,24.56
2017-09-27T11:47:50.697Z,24.64
2017-09-27T11:48:50.703Z,23.81
2017-09-27T11:49:50.714Z,23.97
2017-09-27T11:50:50.720Z,23.74
2017-09-27T11:51:50.726Z,23.68
2017-09-27T11:52:50.732Z,23.69
2017-09-27T11:53:50.733Z,23.89
2017-09-27T11:54:50.739Z,23.77
2017-09-27T11:55:50.744Z,24.02
2017-09-27T11:56:50.749Z,24.08
2017-09-27T11:57:50.760Z,23.89
2017-09-27T11:58:50.764Z,23.99
2017-09-27T11:59:50.770Z,23.94
2017-09-27T12:00:50.776Z,23.96
2017-09-27T12:01:50.781Z,23.69
2017-09-27T12:02:50.788Z,23.87
2017-09-27T12:03:50.792Z,23.82
2017-09-27T12:04:50.797Z,23.78
2017-09-27T12:05:50.797Z,23.67
2017-09-27T12:06:50.804Z,23.47
2017-09-27T12:07:50.809Z,23.53
2017-09-27T12:08:50.816Z,23.69
2017-09-27T12:09:50.817Z,23.87
2017-09-27T12:10:50.823Z,23.99
2017-09-27T12:11:50.827Z,23.97
2017-09-27T12:12:50.831Z,24.18
2017-09-27T12:13:50.842Z,24.02
2017-09-27T12:14:50.857Z,23.81
2017-09-27T12:15:50.852Z,23.53
2017-09-27T12:16:50.854Z,23.22
2017-09-27T12:17:50.859Z,23.21
2017-09-27T12:18:50.865Z,23.26
2017-09-27T12:19:50.870Z,23.34
2017-09-27T12:20:50.874Z,23.22
2017-09-27T12:21:50.873Z,23.38
2017-09-27T12:22:50.898Z,23.69
2017-09-27T12:23:50.884Z,23.77
2017-09-27T12:24:50.886Z,24.00
2017-09-27T12:25:50.891Z,23.97
2017-09-27T12:26:50.896Z,24.11
2017-09-27T12:27:50.899Z,24.19
2017-09-27T12:28:50.903Z,24.42
2017-09-27T12:29:50.911Z,24.53
2017-09-27T12:30:50.915Z,24.71
2017-09-27T12:31:50.921Z,24.48
2017-09-27T12:32:50.924Z,24.61
2017-09-27T12:33:50.929Z,24.31
2017-09-27T12:34:50.940Z,24.34
2017-09-27T12:35:50.938Z,24.55
2017-09-27T12:36:50.942Z,24.29
2017-09-27T12:37:50.943Z,23.77
2017-09-27T12:38:50.948Z,23.92
2017-09-27T12:39:50.953Z,23.93
2017-09-27T12:40:50.955Z,23.94
2017-09-27T12:41:50.961Z,23.74
2017-09-27T12:42:50.965Z,23.96
2017-09-27T12:43:50.970Z,23.90
2017-09-27T12:44:50.974Z,24.04
2017-09-27T12:45:50.983Z,24.02
2017-09-27T12:46:50.988Z,24.15
2017-09-27T12:47:50.992Z,24.21
2017-09-27T12:48:50.997Z,23.90
2017-09-27T12:49:51.001Z,23.92
2017-09-27T12:50:51.006Z,23.77
2017-09-27T12:51:51.013Z,23.75
2017-09-27T12:52:51.014Z,23.90